Mercury, Nevada
Current Conditions -  °F | °C
As of 8:52 PM on Saturday 22 Nov 2014 (Local Time) from KDRA Reporting Station
Clear Clear  
Wind Chill: 52°   Ceiling: Unl
Heat Index: 52°   Visibility: 10mi
Dew Point: 30°   Wind: 7mph
Humidity: 43%   Direction: 340°NNW
Pressure: 29.97"   Gusts: NA
Location:  36.66°N, 116°W
Report Text: KDRA 230452Z AUTO 34006KT 10SM CLR 11/M01 A2997 RMK AO2 SLP129 T01111011 $
Loading
Personal Weather Stations






























Interactive Weather Map New forecast layout! Learn more

10-Day Weather Forecast

Advertisements
Track Severe Weather on mobile